Terminal Aerodrome Forecast
Issued by NWS

Home | Current Version | Previous Version | Text Only | Print | Product List | Glossary On
Versions: 1 2 3 4 5 6 7 8 9 10 11 12 13
580
FTUS46 KMFR 300748 AAA
TAFRBG
TAF AMD
KRBG 300748Z 3008/0106 32005KT P6SM OVC035
     FM300900 36006G15KT P6SM OVC025
     FM301800 01012G18KT P6SM SCT025
     FM010000 01014G21KT P6SM SKC=

USA.gov is the U.S. government's official web portal to all federal, state and local government web resources and services.